Time;durP1;ratioP1;P1;durP2;ratioP2;P2;SDS_P1;SDS_P2;PMS_P1;PMS_P2;Temp;Humidity;BMP_temperature;BMP_pressure;BME280_temperature;BME280_humidity;BME280_pressure;Samples;Min_cycle;Max_cycle;Signal;HPM_P1;HPM_P2
2023/08/01 00:02:11;;;;;;;16.55;4.28;;;;;;;;;;5052479;28;20060;-73
2023/08/01 00:04:37;;;;;;;21.85;4.95;;;;;;;;;;5024162;28;20074;-75
2023/08/01 00:07:03;;;;;;;12.27;3.88;;;;;;;;;;5052290;28;20051;-76
2023/08/01 00:09:29;;;;;;;14.38;4.18;;;;;;;;;;5052571;28;20161;-74
2023/08/01 00:11:55;;;;;;;14.75;4.00;;;;;;;;;;5050285;28;20058;-76
2023/08/01 00:14:24;;;;;;;16.08;4.68;;;;;;;;;;5050617;28;20040;-75
2023/08/01 00:16:50;;;;;;;12.50;4.43;;;;;;;;;;5051944;28;20033;-74
2023/08/01 00:19:16;;;;;;;15.00;4.32;;;;;;;;;;5043803;28;20084;-72
2023/08/01 00:21:42;;;;;;;14.48;4.65;;;;;;;;;;5015639;28;20037;-75
2023/08/01 00:24:08;;;;;;;14.50;4.50;;;;;;;;;;5024796;28;20458;-75
2023/08/01 00:26:35;;;;;;;12.70;4.35;;;;;;;;;;5022337;28;20095;-76
2023/08/01 00:29:01;;;;;;;12.82;4.15;;;;;;;;;;5039442;28;20373;-76
2023/08/01 00:31:27;;;;;;;15.18;4.47;;;;;;;;;;5045199;28;20063;-76
2023/08/01 00:33:53;;;;;;;10.23;4.07;;;;;;;;;;5044441;28;20411;-76
2023/08/01 00:36:19;;;;;;;14.80;4.00;;;;;;;;;;5033195;28;20072;-76
2023/08/01 00:38:45;;;;;;;10.30;3.65;;;;;;;;;;5042171;28;20048;-76
2023/08/01 00:41:11;;;;;;;10.38;4.05;;;;;;;;;;5051229;28;20041;-76
2023/08/01 00:43:37;;;;;;;10.00;4.00;;;;;;;;;;5035016;28;20490;-75
2023/08/01 00:46:05;;;;;;;9.15;3.90;;;;;;;;;;5032916;28;20060;-75
2023/08/01 00:48:31;;;;;;;13.55;4.38;;;;;;;;;;5044591;28;20049;-76
2023/08/01 00:51:01;;;;;;;14.05;4.80;;;;;;;;;;5044608;28;20556;-75
2023/08/01 00:53:27;;;;;;;11.73;4.90;;;;;;;;;;5042362;28;20033;-74
2023/08/01 00:55:54;;;;;;;13.95;4.50;;;;;;;;;;5030437;28;20048;-75
2023/08/01 00:58:21;;;;;;;11.90;4.75;;;;;;;;;;5016435;28;20123;-74
2023/08/01 01:00:47;;;;;;;9.68;4.40;;;;;;;;;;5025536;28;20563;-74
2023/08/01 01:03:14;;;;;;;13.20;4.70;;;;;;;;;;5005855;28;20131;-75
2023/08/01 01:05:41;;;;;;;9.98;4.47;;;;;;;;;;5026931;28;20546;-75
2023/08/01 01:08:07;;;;;;;14.45;4.88;;;;;;;;;;5016175;28;20565;-75
2023/08/01 01:10:34;;;;;;;12.43;5.03;;;;;;;;;;5029641;28;20044;-75
2023/08/01 01:13:00;;;;;;;13.43;5.15;;;;;;;;;;5015729;28;20045;-75
2023/08/01 01:15:26;;;;;;;15.18;5.30;;;;;;;;;;5013029;28;20073;-75
2023/08/01 01:17:52;;;;;;;14.13;5.35;;;;;;;;;;5019755;28;20064;-75
2023/08/01 01:20:27;;;;;;;15.20;5.20;;;;;;;;;;5028539;28;20052;-74
2023/08/01 01:22:54;;;;;;;17.40;6.03;;;;;;;;;;5023809;28;20052;-74
2023/08/01 01:25:20;;;;;;;12.48;5.75;;;;;;;;;;5034125;28;20383;-74
2023/08/01 01:27:48;;;;;;;17.70;6.10;;;;;;;;;;5029160;28;20037;-74
2023/08/01 01:30:14;;;;;;;20.52;6.30;;;;;;;;;;5011782;28;20495;-73
2023/08/01 01:32:40;;;;;;;16.70;6.43;;;;;;;;;;5029327;28;20491;-73
2023/08/01 01:35:07;;;;;;;17.20;6.13;;;;;;;;;;5024144;28;20044;-73
2023/08/01 01:37:33;;;;;;;19.23;6.78;;;;;;;;;;5020873;28;20064;-74
2023/08/01 01:39:59;;;;;;;17.80;5.70;;;;;;;;;;5023296;28;20128;-73
2023/08/01 01:42:25;;;;;;;22.00;6.65;;;;;;;;;;5016278;28;20037;-73
2023/08/01 01:44:51;;;;;;;14.63;5.65;;;;;;;;;;5005255;28;20124;-74
2023/08/01 01:47:18;;;;;;;21.20;5.88;;;;;;;;;;5021056;28;20072;-74
2023/08/01 01:49:44;;;;;;;17.17;6.03;;;;;;;;;;5021942;28;20044;-74
2023/08/01 01:52:10;;;;;;;15.93;5.07;;;;;;;;;;5033835;28;20079;-74
2023/08/01 01:54:36;;;;;;;17.65;5.18;;;;;;;;;;5040290;28;20064;-74
2023/08/01 01:57:02;;;;;;;14.93;5.00;;;;;;;;;;5042369;28;20107;-73
2023/08/01 01:59:28;;;;;;;18.48;5.07;;;;;;;;;;5035724;28;20045;-74
2023/08/01 02:01:54;;;;;;;16.23;5.03;;;;;;;;;;5041052;28;20407;-73
2023/08/01 02:04:21;;;;;;;21.50;5.30;;;;;;;;;;5045392;28;20052;-74
2023/08/01 02:06:47;;;;;;;18.45;5.63;;;;;;;;;;5045385;28;20047;-74
2023/08/01 02:09:14;;;;;;;15.35;5.15;;;;;;;;;;5017090;28;20038;-73
2023/08/01 02:11:40;;;;;;;16.92;5.18;;;;;;;;;;5050791;28;20412;-74
2023/08/01 02:14:06;;;;;;;17.10;5.15;;;;;;;;;;5033844;28;20537;-74
2023/08/01 02:16:32;;;;;;;20.08;5.40;;;;;;;;;;5023004;28;20099;-74
2023/08/01 02:18:58;;;;;;;14.40;5.65;;;;;;;;;;5049243;28;20063;-74
2023/08/01 02:21:24;;;;;;;11.55;5.15;;;;;;;;;;5050279;28;20120;-74
2023/08/01 02:23:50;;;;;;;15.70;5.43;;;;;;;;;;5027530;28;20092;-74
2023/08/01 02:26:16;;;;;;;17.40;5.13;;;;;;;;;;5043431;28;20056;-74
2023/08/01 02:28:42;;;;;;;16.73;5.95;;;;;;;;;;5020771;28;20088;-73
2023/08/01 02:31:08;;;;;;;15.05;5.65;;;;;;;;;;5043748;28;20084;-74
2023/08/01 02:33:34;;;;;;;18.02;5.57;;;;;;;;;;5030386;28;20076;-74
2023/08/01 02:36:00;;;;;;;16.65;6.00;;;;;;;;;;5048170;28;20087;-74
2023/08/01 02:38:26;;;;;;;15.25;5.63;;;;;;;;;;5029988;28;20053;-74
2023/08/01 02:40:52;;;;;;;16.77;5.53;;;;;;;;;;5046999;28;20048;-73
2023/08/01 02:43:18;;;;;;;16.38;4.95;;;;;;;;;;5041488;28;20049;-75
2023/08/01 02:45:44;;;;;;;10.38;2.90;;;;;;;;;;5044562;28;20127;-74
2023/08/01 02:48:11;;;;;;;4.43;1.50;;;;;;;;;;5044439;28;20507;-72
2023/08/01 02:50:37;;;;;;;3.60;1.48;;;;;;;;;;5018766;28;20411;-73
2023/08/01 02:53:03;;;;;;;4.45;1.38;;;;;;;;;;5018584;28;20392;-73
2023/08/01 02:55:29;;;;;;;3.17;1.40;;;;;;;;;;5044046;28;20067;-73
2023/08/01 02:57:55;;;;;;;5.07;1.35;;;;;;;;;;5052354;28;20048;-74
2023/08/01 03:00:21;;;;;;;3.50;1.13;;;;;;;;;;5035049;28;20044;-74
2023/08/01 03:02:47;;;;;;;3.83;1.27;;;;;;;;;;5016310;28;20052;-72
2023/08/01 03:05:13;;;;;;;4.82;1.40;;;;;;;;;;5023371;28;20131;-73
2023/08/01 03:07:39;;;;;;;3.47;1.10;;;;;;;;;;5034041;28;20037;-74
2023/08/01 03:10:06;;;;;;;4.15;1.27;;;;;;;;;;5025163;28;20574;-74
2023/08/01 03:12:33;;;;;;;3.55;1.02;;;;;;;;;;5055013;28;20491;-74
2023/08/01 03:14:59;;;;;;;3.30;1.17;;;;;;;;;;5053653;28;20120;-74
2023/08/01 03:17:25;;;;;;;7.28;1.30;;;;;;;;;;5053182;28;20128;-74
2023/08/01 03:19:51;;;;;;;4.65;1.00;;;;;;;;;;5022840;28;20041;-74
2023/08/01 03:22:17;;;;;;;3.92;1.42;;;;;;;;;;5054239;28;20502;-74
2023/08/01 03:24:43;;;;;;;3.67;1.00;;;;;;;;;;5054190;28;20075;-74
2023/08/01 03:27:09;;;;;;;4.60;1.10;;;;;;;;;;5049117;28;20038;-74
2023/08/01 03:29:35;;;;;;;3.40;1.27;;;;;;;;;;5046179;28;20122;-73
2023/08/01 03:32:01;;;;;;;2.97;1.30;;;;;;;;;;5040627;28;20095;-73
2023/08/01 03:34:27;;;;;;;4.43;1.67;;;;;;;;;;5038408;28;20063;-73
2023/08/01 03:36:53;;;;;;;9.20;1.50;;;;;;;;;;5053145;28;20044;-74
2023/08/01 03:39:20;;;;;;;5.07;1.30;;;;;;;;;;5034641;28;20120;-73
2023/08/01 03:41:46;;;;;;;3.38;1.10;;;;;;;;;;5039969;28;20419;-74
2023/08/01 03:44:12;;;;;;;9.35;1.50;;;;;;;;;;5048564;28;20119;-73
2023/08/01 03:46:38;;;;;;;4.72;1.45;;;;;;;;;;5044589;28;20041;-73
2023/08/01 03:49:04;;;;;;;5.80;1.40;;;;;;;;;;5032553;28;20038;-73
2023/08/01 03:51:30;;;;;;;4.65;1.42;;;;;;;;;;5028318;28;20045;-73
2023/08/01 03:53:56;;;;;;;5.65;1.70;;;;;;;;;;5040431;28;20053;-73
2023/08/01 03:56:23;;;;;;;6.05;1.60;;;;;;;;;;5021071;28;20114;-74
2023/08/01 03:58:49;;;;;;;7.43;1.60;;;;;;;;;;5034914;28;20052;-73
2023/08/01 04:01:15;;;;;;;7.93;1.70;;;;;;;;;;5025757;28;20052;-73
2023/08/01 04:03:41;;;;;;;6.30;1.73;;;;;;;;;;5019327;28;20395;-73
2023/08/01 04:06:08;;;;;;;8.85;1.65;;;;;;;;;;5049407;28;20068;-73
2023/08/01 04:08:34;;;;;;;5.43;1.65;;;;;;;;;;5035672;28;20510;-73
2023/08/01 04:11:00;;;;;;;4.70;1.50;;;;;;;;;;5031141;28;20044;-73
2023/08/01 04:13:26;;;;;;;4.93;1.70;;;;;;;;;;5033925;28;20411;-73
2023/08/01 04:15:52;;;;;;;6.18;1.60;;;;;;;;;;5033010;28;20140;-75
2023/08/01 04:18:18;;;;;;;4.70;1.50;;;;;;;;;;5035142;28;20049;-74
2023/08/01 04:20:44;;;;;;;6.07;1.60;;;;;;;;;;5035157;28;20045;-74
2023/08/01 04:23:10;;;;;;;4.75;1.58;;;;;;;;;;5031991;28;20045;-74
2023/08/01 04:25:36;;;;;;;4.95;1.58;;;;;;;;;;5018657;28;20045;-74
2023/08/01 04:28:02;;;;;;;5.32;1.70;;;;;;;;;;5006387;28;20440;-74
2023/08/01 04:30:28;;;;;;;5.85;1.70;;;;;;;;;;5030289;28;20159;-74
2023/08/01 04:32:54;;;;;;;4.80;1.73;;;;;;;;;;5030396;28;20032;-75
2023/08/01 04:35:20;;;;;;;4.70;1.90;;;;;;;;;;5034827;28;20552;-76
2023/08/01 04:37:46;;;;;;;3.15;1.55;;;;;;;;;;5030098;28;20110;-76
2023/08/01 04:40:13;;;;;;;6.13;1.85;;;;;;;;;;5010416;28;20052;-76
2023/08/01 04:42:39;;;;;;;3.85;1.80;;;;;;;;;;5016719;28;20047;-76
2023/08/01 04:45:06;;;;;;;5.32;1.80;;;;;;;;;;5041792;28;20491;-76
2023/08/01 04:47:32;;;;;;;4.32;1.80;;;;;;;;;;5028779;28;20051;-76
2023/08/01 04:49:58;;;;;;;8.13;2.00;;;;;;;;;;5023100;28;20376;-76
2023/08/01 04:52:25;;;;;;;6.03;1.83;;;;;;;;;;5033794;28;20041;-76
2023/08/01 04:54:51;;;;;;;7.45;2.05;;;;;;;;;;5030591;28;20057;-76
2023/08/01 04:57:17;;;;;;;7.47;1.95;;;;;;;;;;5043006;28;20049;-76
2023/08/01 04:59:43;;;;;;;5.22;2.25;;;;;;;;;;5033583;28;20124;-77
2023/08/01 05:02:09;;;;;;;5.05;2.15;;;;;;;;;;5014916;28;20561;-76
2023/08/01 05:04:35;;;;;;;5.47;1.92;;;;;;;;;;5035636;28;20045;-75
2023/08/01 05:07:01;;;;;;;7.80;1.98;;;;;;;;;;5022627;28;20033;-75
2023/08/01 05:09:27;;;;;;;4.63;2.10;;;;;;;;;;5050900;28;20433;-75
2023/08/01 05:11:53;;;;;;;6.63;2.13;;;;;;;;;;5045632;28;20391;-75
2023/08/01 05:14:19;;;;;;;4.50;2.03;;;;;;;;;;5038087;28;20383;-75
2023/08/01 05:16:45;;;;;;;7.93;3.08;;;;;;;;;;5038082;28;20111;-75
2023/08/01 05:19:11;;;;;;;6.13;2.38;;;;;;;;;;5043971;28;20088;-75
2023/08/01 05:21:37;;;;;;;5.72;2.10;;;;;;;;;;5036954;28;20491;-75
2023/08/01 05:24:04;;;;;;;8.95;2.58;;;;;;;;;;5043403;28;20554;-75
2023/08/01 05:26:30;;;;;;;10.85;2.28;;;;;;;;;;5036629;28;20041;-75
2023/08/01 05:28:56;;;;;;;5.30;2.10;;;;;;;;;;5035229;28;20531;-75
2023/08/01 05:31:22;;;;;;;6.88;1.90;;;;;;;;;;5019597;28;20400;-75
2023/08/01 05:33:48;;;;;;;4.80;1.90;;;;;;;;;;5050286;28;20062;-75
2023/08/01 05:36:14;;;;;;;5.97;2.47;;;;;;;;;;5021382;28;20045;-75
2023/08/01 05:38:40;;;;;;;5.43;1.98;;;;;;;;;;5032220;28;20110;-75
2023/08/01 05:41:06;;;;;;;5.30;2.10;;;;;;;;;;5028487;28;20141;-75
2023/08/01 05:43:32;;;;;;;5.72;1.73;;;;;;;;;;5021604;28;20507;-74
2023/08/01 05:45:58;;;;;;;5.95;2.10;;;;;;;;;;5025930;28;20053;-75
2023/08/01 05:48:24;;;;;;;3.78;1.50;;;;;;;;;;5049500;28;20049;-75
2023/08/01 05:50:51;;;;;;;5.38;1.90;;;;;;;;;;5036679;28;20099;-75
2023/08/01 05:53:17;;;;;;;7.80;2.42;;;;;;;;;;5050968;28;20074;-75
2023/08/01 05:55:43;;;;;;;5.35;2.00;;;;;;;;;;5027112;28;20049;-74
2023/08/01 05:58:09;;;;;;;5.53;1.92;;;;;;;;;;5030965;28;20049;-73
2023/08/01 06:00:35;;;;;;;4.30;1.60;;;;;;;;;;5041150;28;20052;-74
2023/08/01 06:03:01;;;;;;;4.30;1.45;;;;;;;;;;5033828;28;20070;-73
2023/08/01 06:05:27;;;;;;;4.18;1.60;;;;;;;;;;5050271;28;20041;-73
2023/08/01 06:07:53;;;;;;;6.28;1.50;;;;;;;;;;5037612;28;20511;-73
2023/08/01 06:10:20;;;;;;;5.63;1.83;;;;;;;;;;5043006;28;20045;-73
2023/08/01 06:12:46;;;;;;;4.55;1.90;;;;;;;;;;5036726;28;20506;-73
2023/08/01 06:15:12;;;;;;;3.97;1.50;;;;;;;;;;5049522;28;20486;-73
2023/08/01 06:17:38;;;;;;;4.68;1.50;;;;;;;;;;5031950;28;20037;-73
2023/08/01 06:20:05;;;;;;;4.15;1.50;;;;;;;;;;5046882;28;20117;-74
2023/08/01 06:22:31;;;;;;;6.53;1.98;;;;;;;;;;5042769;28;20495;-73
2023/08/01 06:24:57;;;;;;;8.65;1.60;;;;;;;;;;5039803;28;20049;-74
2023/08/01 06:27:23;;;;;;;5.82;1.50;;;;;;;;;;5037272;28;20044;-73
2023/08/01 06:29:49;;;;;;;3.55;1.30;;;;;;;;;;5043885;28;20045;-74
2023/08/01 06:32:16;;;;;;;5.47;1.20;;;;;;;;;;5022124;28;20496;-74
2023/08/01 06:34:42;;;;;;;5.43;1.67;;;;;;;;;;5021994;28;20037;-75
2023/08/01 06:37:10;;;;;;;3.35;1.20;;;;;;;;;;5040174;28;20049;-73
2023/08/01 06:39:36;;;;;;;5.50;1.40;;;;;;;;;;5039904;28;20448;-74
2023/08/01 06:42:02;;;;;;;3.28;0.95;;;;;;;;;;5029759;28;20045;-73
2023/08/01 06:44:29;;;;;;;4.68;0.88;;;;;;;;;;5045611;28;20080;-73
2023/08/01 06:46:55;;;;;;;5.00;1.00;;;;;;;;;;5049700;28;20037;-74
2023/08/01 06:49:21;;;;;;;3.50;1.02;;;;;;;;;;5051403;28;20040;-73
2023/08/01 06:51:47;;;;;;;5.07;1.10;;;;;;;;;;5043384;28;20513;-75
2023/08/01 06:54:13;;;;;;;4.88;1.05;;;;;;;;;;5040745;28;20100;-73
2023/08/01 06:56:39;;;;;;;4.35;1.02;;;;;;;;;;5008320;28;20403;-75
2023/08/01 06:59:05;;;;;;;5.18;1.40;;;;;;;;;;5055316;28;20048;-74
2023/08/01 07:01:32;;;;;;;4.07;1.02;;;;;;;;;;5031123;28;20406;-79
2023/08/01 07:03:59;;;;;;;5.70;1.05;;;;;;;;;;5026266;28;20073;-74
2023/08/01 07:06:25;;;;;;;7.85;1.42;;;;;;;;;;5026580;28;20094;-75
2023/08/01 07:08:51;;;;;;;5.88;1.52;;;;;;;;;;5021440;28;20038;-76
2023/08/01 07:11:18;;;;;;;8.95;1.38;;;;;;;;;;5027116;28;20075;-79
2023/08/01 07:13:44;;;;;;;7.05;1.50;;;;;;;;;;5023440;28;20036;-75
2023/08/01 07:16:11;;;;;;;5.60;1.40;;;;;;;;;;5035627;28;20255;-76
2023/08/01 07:18:37;;;;;;;6.40;1.65;;;;;;;;;;5022929;28;20480;-77
2023/08/01 07:21:04;;;;;;;6.15;1.23;;;;;;;;;;5033659;28;20098;-75
2023/08/01 07:23:31;;;;;;;5.38;1.60;;;;;;;;;;5032347;28;20045;-76
2023/08/01 07:25:57;;;;;;;12.52;2.30;;;;;;;;;;5046336;28;20310;-77
2023/08/01 07:28:23;;;;;;;7.47;1.70;;;;;;;;;;5027487;28;20499;-72
2023/08/01 07:30:49;;;;;;;4.75;1.60;;;;;;;;;;5016233;28;20055;-72
2023/08/01 07:33:15;;;;;;;14.35;2.17;;;;;;;;;;5026418;28;20044;-73
2023/08/01 07:35:41;;;;;;;5.28;1.92;;;;;;;;;;5036747;28;20045;-73
2023/08/01 07:38:08;;;;;;;7.93;2.15;;;;;;;;;;5016222;28;20081;-73
2023/08/01 07:40:36;;;;;;;9.13;2.35;;;;;;;;;;5054343;28;20483;-74
2023/08/01 07:43:02;;;;;;;9.15;2.25;;;;;;;;;;5034774;28;20033;-74
2023/08/01 07:45:28;;;;;;;9.27;2.28;;;;;;;;;;5030279;28;20059;-74
2023/08/01 07:47:54;;;;;;;8.88;2.13;;;;;;;;;;5014918;28;20484;-73
2023/08/01 07:50:20;;;;;;;8.90;2.40;;;;;;;;;;5051722;28;20452;-73
2023/08/01 07:52:48;;;;;;;9.30;2.67;;;;;;;;;;5016430;28;20067;-73
2023/08/01 07:55:14;;;;;;;9.50;2.55;;;;;;;;;;5034458;28;20542;-73
2023/08/01 07:57:41;;;;;;;8.40;2.88;;;;;;;;;;5051347;28;20048;-72
2023/08/01 08:00:09;;;;;;;9.57;3.13;;;;;;;;;;5041290;28;20045;-74
2023/08/01 08:02:35;;;;;;;10.82;3.10;;;;;;;;;;5040480;28;20045;-73
2023/08/01 08:05:01;;;;;;;8.80;2.95;;;;;;;;;;5047451;28;20045;-73
2023/08/01 08:07:27;;;;;;;13.57;3.20;;;;;;;;;;5027166;28;20072;-73
2023/08/01 08:09:55;;;;;;;11.82;3.20;;;;;;;;;;5027086;28;20075;-73
2023/08/01 08:12:21;;;;;;;11.35;3.42;;;;;;;;;;5040990;28;20127;-73
2023/08/01 08:14:47;;;;;;;11.52;3.10;;;;;;;;;;5031236;28;20160;-73
2023/08/01 08:17:13;;;;;;;9.10;3.78;;;;;;;;;;5029284;28;20063;-73
2023/08/01 08:19:40;;;;;;;7.35;3.13;;;;;;;;;;5016013;28;20399;-73
2023/08/01 08:22:06;;;;;;;10.93;3.28;;;;;;;;;;5037905;28;20044;-73
2023/08/01 08:24:32;;;;;;;9.93;3.05;;;;;;;;;;5041007;28;20510;-73
2023/08/01 08:26:58;;;;;;;12.68;3.72;;;;;;;;;;5038496;28;20041;-72
2023/08/01 08:29:24;;;;;;;8.90;3.38;;;;;;;;;;5044830;28;20321;-72
2023/08/01 08:31:51;;;;;;;13.27;3.78;;;;;;;;;;5051438;28;20145;-72
2023/08/01 08:34:17;;;;;;;14.35;4.13;;;;;;;;;;5047223;28;20029;-73
2023/08/01 08:36:43;;;;;;;14.60;4.40;;;;;;;;;;5042424;28;20372;-73
2023/08/01 08:39:09;;;;;;;11.73;3.90;;;;;;;;;;5048479;28;20048;-73
2023/08/01 08:41:49;;;;;;;11.93;4.32;;;;;;;;;;5048001;28;20492;-72
2023/08/01 08:44:16;;;;;;;14.45;4.25;;;;;;;;;;5037210;28;20047;-72
2023/08/01 08:46:44;;;;;;;13.35;3.97;;;;;;;;;;5045424;28;20410;-72
2023/08/01 08:49:10;;;;;;;10.88;3.90;;;;;;;;;;5026211;28;20080;-72
2023/08/01 08:51:38;;;;;;;11.85;3.40;;;;;;;;;;5050126;28;20049;-72
2023/08/01 08:54:05;;;;;;;7.25;3.63;;;;;;;;;;5051984;28;20040;-72
2023/08/01 08:56:32;;;;;;;10.55;3.85;;;;;;;;;;5051991;28;20103;-72
2023/08/01 08:58:59;;;;;;;10.98;3.65;;;;;;;;;;5012249;28;20091;-73
2023/08/01 09:01:26;;;;;;;9.20;3.38;;;;;;;;;;5011773;28;20044;-76
2023/08/01 09:03:56;;;;;;;7.10;2.90;;;;;;;;;;5023553;28;20041;-72
2023/08/01 09:06:28;;;;;;;9.68;3.30;;;;;;;;;;5014645;28;20072;-74
2023/08/01 09:09:05;;;;;;;5.80;2.70;;;;;;;;;;5050941;28;20090;-72
2023/08/01 09:11:57;;;;;;;6.38;2.75;;;;;;;;;;5023854;28;20045;-71
2023/08/01 09:14:23;;;;;;;7.15;2.75;;;;;;;;;;5001654;28;20084;-72
2023/08/01 09:16:50;;;;;;;9.23;3.00;;;;;;;;;;5033613;28;20112;-72
2023/08/01 09:19:20;;;;;;;9.18;3.20;;;;;;;;;;5018306;28;20037;-71
2023/08/01 09:21:46;;;;;;;6.65;2.95;;;;;;;;;;5033595;28;20080;-71
2023/08/01 09:24:17;;;;;;;7.38;3.30;;;;;;;;;;5049939;28;20512;-71
2023/08/01 09:26:43;;;;;;;7.07;3.05;;;;;;;;;;5032459;28;20510;-71
2023/08/01 09:29:09;;;;;;;6.07;2.60;;;;;;;;;;5031768;28;20033;-72
2023/08/01 09:31:39;;;;;;;9.80;2.65;;;;;;;;;;5047715;28;20557;-72
2023/08/01 09:34:07;;;;;;;8.27;2.65;;;;;;;;;;5013420;28;20037;-71
2023/08/01 09:36:34;;;;;;;5.95;2.38;;;;;;;;;;5026190;28;20120;-70
2023/08/01 09:39:01;;;;;;;5.75;1.90;;;;;;;;;;5016277;28;20045;-73
2023/08/01 09:41:27;;;;;;;5.55;1.63;;;;;;;;;;5044041;28;20049;-71
2023/08/01 09:43:53;;;;;;;6.90;2.05;;;;;;;;;;5013401;28;20037;-72
2023/08/01 09:46:19;;;;;;;4.85;1.58;;;;;;;;;;5018323;28;20057;-72
2023/08/01 09:48:45;;;;;;;6.22;2.10;;;;;;;;;;5015616;28;20482;-71
2023/08/01 09:51:12;;;;;;;6.65;1.73;;;;;;;;;;5031552;28;20126;-71
2023/08/01 09:53:55;;;;;;;6.07;1.75;;;;;;;;;;5026678;28;20037;-71
2023/08/01 09:56:25;;;;;;;5.20;1.85;;;;;;;;;;5026682;28;20060;-73
2023/08/01 09:58:52;;;;;;;9.05;2.03;;;;;;;;;;5043891;28;20049;-73
2023/08/01 10:01:19;;;;;;;7.38;2.10;;;;;;;;;;5049449;28;20526;-71
2023/08/01 10:03:49;;;;;;;10.70;2.45;;;;;;;;;;5051091;28;20098;-71
2023/08/01 10:06:19;;;;;;;9.23;2.28;;;;;;;;;;5052308;28;20037;-72
2023/08/01 10:08:46;;;;;;;10.23;2.72;;;;;;;;;;5052682;28;20048;-71
2023/08/01 10:11:18;;;;;;;9.02;2.55;;;;;;;;;;5035871;28;20040;-72
2023/08/01 10:13:44;;;;;;;11.05;2.42;;;;;;;;;;5053516;28;20033;-71
2023/08/01 10:16:11;;;;;;;12.80;2.47;;;;;;;;;;5053045;28;20050;-73
2023/08/01 10:18:38;;;;;;;7.20;2.05;;;;;;;;;;5051581;28;20041;-74
2023/08/01 10:21:17;;;;;;;10.43;2.40;;;;;;;;;;5054159;28;20420;-74
2023/08/01 10:23:45;;;;;;;8.20;2.00;;;;;;;;;;5050854;28;20040;-74
2023/08/01 10:26:11;;;;;;;9.85;2.10;;;;;;;;;;5045607;28;20077;-73
2023/08/01 10:28:41;;;;;;;10.05;1.90;;;;;;;;;;5054165;28;20037;-72
2023/08/01 10:31:09;;;;;;;6.32;1.63;;;;;;;;;;5053515;28;20060;-75
2023/08/01 10:33:35;;;;;;;8.93;1.52;;;;;;;;;;5051903;28;20041;-74
2023/08/01 10:36:01;;;;;;;9.23;1.85;;;;;;;;;;5053614;28;20453;-73
2023/08/01 10:38:27;;;;;;;6.68;1.60;;;;;;;;;;5044916;28;20041;-73
2023/08/01 10:40:53;;;;;;;7.95;2.03;;;;;;;;;;5048568;28;20135;-73
2023/08/01 10:43:23;;;;;;;7.57;1.67;;;;;;;;;;5033587;28;20048;-74
2023/08/01 10:45:49;;;;;;;9.45;1.88;;;;;;;;;;5023097;28;20048;-72
2023/08/01 10:48:15;;;;;;;7.32;1.80;;;;;;;;;;5045997;28;20038;-72
2023/08/01 10:50:41;;;;;;;7.63;1.83;;;;;;;;;;5025145;28;20030;-74
2023/08/01 10:53:09;;;;;;;6.45;1.75;;;;;;;;;;5031176;28;20515;-72
2023/08/01 10:55:48;;;;;;;7.22;1.48;;;;;;;;;;5029651;28;20534;-73
2023/08/01 10:58:15;;;;;;;8.23;1.50;;;;;;;;;;5039944;28;20041;-73
2023/08/01 11:00:42;;;;;;;6.50;1.80;;;;;;;;;;5037310;28;20048;-79
2023/08/01 11:03:08;;;;;;;7.97;2.22;;;;;;;;;;5022985;28;20055;-75
2023/08/01 11:05:34;;;;;;;6.10;1.40;;;;;;;;;;5054803;28;20406;-74
2023/08/01 11:08:01;;;;;;;8.20;1.73;;;;;;;;;;5047178;28;20033;-74
2023/08/01 11:10:28;;;;;;;6.50;1.70;;;;;;;;;;5053061;28;20041;-75
2023/08/01 11:12:55;;;;;;;8.18;1.50;;;;;;;;;;5038936;28;20132;-74
2023/08/01 11:15:21;;;;;;;6.45;1.40;;;;;;;;;;5054515;28;20045;-76
2023/08/01 11:17:49;;;;;;;6.57;1.65;;;;;;;;;;5041518;28;20407;-77
2023/08/01 11:20:16;;;;;;;5.78;1.90;;;;;;;;;;5038257;28;20131;-75
2023/08/01 11:22:57;;;;;;;8.15;1.92;;;;;;;;;;5046682;28;20137;-78
2023/08/01 11:25:40;;;;;;;6.90;1.80;;;;;;;;;;5035005;28;20052;-78
2023/08/01 11:28:11;;;;;;;9.15;2.67;;;;;;;;;;5049124;28;20049;-76
2023/08/01 11:30:37;;;;;;;10.27;2.35;;;;;;;;;;5019749;28;20069;-80
2023/08/01 11:33:13;;;;;;;6.28;1.73;;;;;;;;;;5025097;28;20090;-78
2023/08/01 11:35:40;;;;;;;6.93;1.92;;;;;;;;;;5050529;28;20102;-78
2023/08/01 11:38:06;;;;;;;6.22;1.80;;;;;;;;;;5040812;28;20053;-76
2023/08/01 11:40:32;;;;;;;8.05;2.20;;;;;;;;;;5036364;28;20051;-75
2023/08/01 11:42:59;;;;;;;6.68;1.58;;;;;;;;;;5052200;28;20044;-75
2023/08/01 11:45:25;;;;;;;6.65;1.80;;;;;;;;;;5049963;28;20114;-76
2023/08/01 11:47:52;;;;;;;9.43;2.20;;;;;;;;;;5012481;28;20384;-76
2023/08/01 11:50:25;;;;;;;6.72;1.67;;;;;;;;;;5039489;28;20038;-77
2023/08/01 11:52:51;;;;;;;6.38;1.92;;;;;;;;;;5036475;28;20093;-77
2023/08/01 11:55:24;;;;;;;9.02;2.17;;;;;;;;;;5047926;28;20061;-75
2023/08/01 11:57:54;;;;;;;6.82;2.03;;;;;;;;;;5050411;28;20060;-77
2023/08/01 12:00:27;;;;;;;6.63;2.10;;;;;;;;;;5029047;28;20128;-74
2023/08/01 12:03:07;;;;;;;8.68;2.50;;;;;;;;;;5048683;28;20047;-77
2023/08/01 12:05:33;;;;;;;8.27;1.80;;;;;;;;;;5052173;28;20048;-77
2023/08/01 12:08:12;;;;;;;6.07;1.30;;;;;;;;;;5033052;28;20536;-74
2023/08/01 12:10:42;;;;;;;6.03;1.15;;;;;;;;;;5037367;28;20049;-77
2023/08/01 12:13:19;;;;;;;4.80;1.30;;;;;;;;;;5046983;28;20366;-77
2023/08/01 12:15:47;;;;;;;7.13;1.60;;;;;;;;;;5033484;28;20083;-75
2023/08/01 12:18:19;;;;;;;5.03;1.67;;;;;;;;;;5049539;28;20074;-77
2023/08/01 12:20:45;;;;;;;11.20;2.13;;;;;;;;;;5035637;28;20506;-75
2023/08/01 12:23:12;;;;;;;11.32;1.92;;;;;;;;;;5019197;28;20419;-77
2023/08/01 12:25:38;;;;;;;11.07;2.10;;;;;;;;;;5038009;28;20041;-75
2023/08/01 12:28:04;;;;;;;5.20;1.83;;;;;;;;;;5023401;28;20044;-78
2023/08/01 12:30:30;;;;;;;8.93;2.20;;;;;;;;;;5040375;28;20045;-79
2023/08/01 12:32:56;;;;;;;7.68;1.90;;;;;;;;;;5040445;28;20467;-77
2023/08/01 12:35:23;;;;;;;9.07;1.80;;;;;;;;;;5031706;28;20041;-77
2023/08/01 12:37:49;;;;;;;7.10;2.13;;;;;;;;;;5014150;28;20036;-78
2023/08/01 12:40:15;;;;;;;7.20;2.17;;;;;;;;;;5030988;28;20047;-76
2023/08/01 12:42:41;;;;;;;8.10;2.50;;;;;;;;;;5030635;28;20045;-76
2023/08/01 12:45:07;;;;;;;11.43;2.47;;;;;;;;;;5040453;28;20053;-77
2023/08/01 12:47:33;;;;;;;9.90;2.15;;;;;;;;;;5019439;28;20103;-76
2023/08/01 12:49:59;;;;;;;6.07;1.90;;;;;;;;;;5034783;28;20037;-78
2023/08/01 12:52:26;;;;;;;6.05;1.70;;;;;;;;;;5038232;28;20037;-78
2023/08/01 12:54:52;;;;;;;6.75;1.70;;;;;;;;;;5046732;28;20056;-77
2023/08/01 12:57:18;;;;;;;5.88;1.67;;;;;;;;;;5031669;28;20120;-77
2023/08/01 12:59:44;;;;;;;8.45;1.70;;;;;;;;;;5013648;28;20037;-77
2023/08/01 13:02:10;;;;;;;7.60;1.67;;;;;;;;;;5041135;28;20041;-77
2023/08/01 13:04:37;;;;;;;7.13;2.50;;;;;;;;;;5018021;28;20506;-79
2023/08/01 13:07:03;;;;;;;5.88;1.60;;;;;;;;;;5043369;28;20044;-79
2023/08/01 13:09:29;;;;;;;6.55;1.70;;;;;;;;;;5032922;28;20118;-77
2023/08/01 13:11:56;;;;;;;7.53;2.03;;;;;;;;;;5030136;28;20578;-75
2023/08/01 13:14:22;;;;;;;6.90;1.90;;;;;;;;;;5051817;28;20051;-78
2023/08/01 13:16:48;;;;;;;6.93;1.48;;;;;;;;;;5049924;28;20479;-76
2023/08/01 13:19:14;;;;;;;3.92;1.20;;;;;;;;;;5035615;28;20517;-77
2023/08/01 13:21:40;;;;;;;5.57;1.40;;;;;;;;;;5043514;28;20041;-76
2023/08/01 13:24:06;;;;;;;2.65;0.90;;;;;;;;;;5024191;28;20080;-77
2023/08/01 13:26:32;;;;;;;3.60;1.35;;;;;;;;;;5042038;28;20041;-76
2023/08/01 13:28:59;;;;;;;5.00;1.17;;;;;;;;;;5046773;28;20476;-77
2023/08/01 13:31:25;;;;;;;3.17;1.08;;;;;;;;;;5037257;28;20120;-77
2023/08/01 13:33:52;;;;;;;4.90;1.27;;;;;;;;;;5025746;28;20037;-77
2023/08/01 13:36:18;;;;;;;7.05;1.40;;;;;;;;;;5041469;28;20381;-76
2023/08/01 13:38:44;;;;;;;4.10;1.17;;;;;;;;;;5037214;28;20048;-77
2023/08/01 13:41:11;;;;;;;4.70;1.30;;;;;;;;;;5037351;28;20041;-77
2023/08/01 13:43:37;;;;;;;6.20;1.25;;;;;;;;;;5031120;28;20500;-77
2023/08/01 13:46:16;;;;;;;4.25;1.15;;;;;;;;;;5038182;28;20044;-78
2023/08/01 13:48:43;;;;;;;3.85;1.23;;;;;;;;;;5045590;28;20041;-76
2023/08/01 13:51:09;;;;;;;5.45;1.30;;;;;;;;;;5049623;28;20075;-77
2023/08/01 13:53:42;;;;;;;11.48;1.80;;;;;;;;;;5037250;28;20045;-77
2023/08/01 13:56:08;;;;;;;7.93;2.05;;;;;;;;;;5022150;28;20507;-81
2023/08/01 13:58:34;;;;;;;5.75;1.67;;;;;;;;;;5042246;28;20041;-83
2023/08/01 14:01:04;;;;;;;4.82;1.70;;;;;;;;;;5043959;28;20086;-85
2023/08/01 14:03:31;;;;;;;5.00;1.70;;;;;;;;;;5027021;28;20084;-80
2023/08/01 14:06:03;;;;;;;3.95;1.73;;;;;;;;;;5038336;28;20037;-83
2023/08/01 14:08:32;;;;;;;9.57;1.67;;;;;;;;;;5031656;28;20122;-79
2023/08/01 14:10:59;;;;;;;6.00;1.92;;;;;;;;;;5039932;28;20123;-75
2023/08/01 14:13:25;;;;;;;6.32;1.88;;;;;;;;;;5044576;28;20041;-77
2023/08/01 14:15:51;;;;;;;4.45;1.52;;;;;;;;;;5047468;28;20515;-75
2023/08/01 14:18:17;;;;;;;4.85;1.52;;;;;;;;;;5045005;28;20049;-74
2023/08/01 14:20:43;;;;;;;10.02;2.00;;;;;;;;;;5045425;28;20437;-72
2023/08/01 14:23:10;;;;;;;4.40;1.67;;;;;;;;;;5046164;28;20077;-81
2023/08/01 14:25:36;;;;;;;7.68;1.80;;;;;;;;;;5048701;28;20070;-87
2023/08/01 14:28:02;;;;;;;3.50;1.40;;;;;;;;;;5033798;28;20037;-79
2023/08/01 14:30:28;;;;;;;4.82;1.83;;;;;;;;;;5032250;28;20029;-74
2023/08/01 14:33:01;;;;;;;3.65;1.60;;;;;;;;;;5016601;28;20041;-76
2023/08/01 14:35:27;;;;;;;5.18;1.98;;;;;;;;;;5024772;28;20057;-75
2023/08/01 14:37:55;;;;;;;7.00;2.13;;;;;;;;;;5022250;28;20048;-72